Time;durP1;ratioP1;P1;durP2;ratioP2;P2;SDS_P1;SDS_P2;PMS_P1;PMS_P2;Temp;Humidity;BMP_temperature;BMP_pressure;BME280_temperature;BME280_humidity;BME280_pressure;Samples;Min_cycle;Max_cycle;Signal;HPM_P1;HPM_P2
2022/06/18 00:00:39;;;;;;;5.40;3.55;;;12.90;99.90;;;;;;4940279;29;20084;-73
2022/06/18 00:03:05;;;;;;;4.38;3.80;;;12.90;99.90;;;;;;4939862;29;20429;-73
2022/06/18 00:05:33;;;;;;;4.80;3.70;;;12.90;99.90;;;;;;4938630;29;20034;-73
2022/06/18 00:07:59;;;;;;;4.53;3.67;;;12.80;99.90;;;;;;4938600;29;20035;-74
2022/06/18 00:10:29;;;;;;;5.05;3.53;;;12.80;99.90;;;;;;4939719;29;20446;-74
2022/06/18 00:15:41;;;;;;;5.40;4.10;;;12.80;99.90;;;;;;4939649;29;20043;-73
2022/06/18 00:18:12;;;;;;;4.32;3.92;;;12.70;99.90;;;;;;4938712;29;20028;-73
2022/06/18 00:20:38;;;;;;;4.07;3.72;;;12.70;99.90;;;;;;4939431;29;20522;-74
2022/06/18 00:23:10;;;;;;;7.20;4.53;;;12.70;99.90;;;;;;4938172;29;20071;-74
2022/06/18 00:25:39;;;;;;;5.88;4.22;;;12.70;99.90;;;;;;4945050;29;20055;-74
2022/06/18 00:28:20;;;;;;;3.80;3.50;;;12.70;99.90;;;;;;4958436;29;20033;-74
2022/06/18 00:30:46;;;;;;;5.88;4.63;;;12.70;99.90;;;;;;4958819;29;20039;-74
2022/06/18 00:33:13;;;;;;;4.25;3.95;;;12.70;99.90;;;;;;4958331;29;20090;-74
2022/06/18 00:35:39;;;;;;;4.82;4.15;;;12.70;99.90;;;;;;4958540;29;20107;-74
2022/06/18 00:38:07;;;;;;;4.80;4.40;;;12.70;99.90;;;;;;4958765;29;20094;-74
2022/06/18 00:40:38;;;;;;;4.38;3.80;;;12.80;99.90;;;;;;4958424;29;20038;-74
2022/06/18 00:43:13;;;;;;;4.07;3.78;;;12.80;99.90;;;;;;4958589;29;20543;-74
2022/06/18 00:45:39;;;;;;;6.45;3.85;;;12.80;99.90;;;;;;4957885;28;20027;-74
2022/06/18 00:48:17;;;;;;;5.57;4.07;;;12.80;99.90;;;;;;4957596;29;20027;-74
2022/06/18 00:50:59;;;;;;;4.25;3.88;;;12.70;99.90;;;;;;4941097;29;20024;-74
2022/06/18 00:53:36;;;;;;;4.88;3.78;;;12.70;99.90;;;;;;4941195;29;20039;-74
2022/06/18 00:56:12;;;;;;;5.32;3.60;;;12.70;99.90;;;;;;4940942;29;20122;-74
2022/06/18 00:59:06;;;;;;;4.65;3.78;;;12.60;99.90;;;;;;4957942;29;20027;-74
2022/06/18 01:01:35;;;;;;;4.03;3.60;;;12.50;99.90;;;;;;4958203;29;20027;-74
2022/06/18 01:04:01;;;;;;;;;;;12.50;99.90;;;;;;4958099;29;20403;-74
2022/06/18 01:06:33;;;;;;;4.40;3.97;;;12.50;99.90;;;;;;4940823;29;19906;-73
2022/06/18 01:09:01;;;;;;;4.45;4.00;;;12.40;99.90;;;;;;4958069;29;20079;-73
2022/06/18 01:11:31;;;;;;;5.63;4.00;;;12.40;99.90;;;;;;4957990;29;20032;-73
2022/06/18 01:13:58;;;;;;;8.10;4.30;;;12.40;99.90;;;;;;4940640;29;20093;-73
2022/06/18 01:16:25;;;;;;;4.57;4.18;;;12.40;99.90;;;;;;4940555;29;20023;-73
2022/06/18 01:18:52;;;;;;;5.93;4.53;;;12.40;99.90;;;;;;4957785;29;20027;-74
2022/06/18 01:21:31;;;;;;;5.15;4.70;;;12.30;99.90;;;;;;4940510;29;20031;-74
2022/06/18 01:24:15;;;;;;;5.13;4.68;;;12.30;99.90;;;;;;4941008;29;20078;-74
2022/06/18 01:26:43;;;;;;;3.90;3.53;;;12.30;99.90;;;;;;4943634;29;20051;-73
2022/06/18 01:29:09;;;;;;;4.30;3.90;;;12.30;99.90;;;;;;4937242;29;20034;-74
2022/06/18 01:31:35;;;;;;;4.47;3.88;;;12.20;99.90;;;;;;4938337;29;20027;-74
2022/06/18 01:34:01;;;;;;;4.40;4.03;;;12.20;99.90;;;;;;4937143;29;20468;-74
2022/06/18 01:36:31;;;;;;;4.97;4.57;;;12.20;99.90;;;;;;4938286;29;20030;-74
2022/06/18 01:38:57;;;;;;;4.88;3.90;;;12.20;99.90;;;;;;4938279;29;20028;-74
2022/06/18 01:41:52;;;;;;;5.10;4.35;;;12.20;99.90;;;;;;4938173;29;20156;-74
2022/06/18 01:44:40;;;;;;;5.15;4.68;;;12.10;99.90;;;;;;4938235;29;20119;-74
2022/06/18 01:47:09;;;;;;;6.25;4.50;;;12.10;99.90;;;;;;4938159;29;20100;-74
2022/06/18 01:49:39;;;;;;;5.85;4.13;;;12.00;99.90;;;;;;4936771;29;20062;-74
2022/06/18 01:52:08;;;;;;;5.25;4.75;;;12.00;99.90;;;;;;4936728;29;20034;-73
2022/06/18 01:54:44;;;;;;;;;;;12.00;99.90;;;;;;4937312;29;20035;-74
2022/06/18 01:57:14;;;;;;;6.47;4.55;;;12.00;99.90;;;;;;4937579;29;19981;-74
2022/06/18 02:00:06;;;;;;;4.75;4.35;;;11.90;99.90;;;;;;4937730;29;20031;-74
2022/06/18 02:02:31;;;;;;;5.10;4.70;;;11.90;99.90;;;;;;4937787;29;20047;-73
2022/06/18 02:04:57;;;;;;;4.85;4.45;;;11.90;99.90;;;;;;4936484;29;20408;-74
2022/06/18 02:07:23;;;;;;;7.57;4.70;;;11.90;99.90;;;;;;4937711;29;20028;-74
2022/06/18 02:10:05;;;;;;;5.13;4.70;;;11.80;99.90;;;;;;4937674;29;20058;-73
2022/06/18 02:12:38;;;;;;;9.38;5.88;;;11.80;99.90;;;;;;4937495;29;20028;-73
2022/06/18 02:15:14;;;;;;;5.32;4.25;;;11.80;99.90;;;;;;4937573;29;20024;-74
2022/06/18 02:17:41;;;;;;;4.95;4.13;;;11.80;99.90;;;;;;4937876;29;20036;-74
2022/06/18 02:20:12;;;;;;;7.88;4.93;;;11.80;99.90;;;;;;4937475;29;20110;-73
2022/06/18 02:22:44;;;;;;;8.15;5.47;;;11.70;99.90;;;;;;4937319;29;20035;-73
2022/06/18 02:25:12;;;;;;;5.60;4.50;;;11.70;99.90;;;;;;4939116;29;20491;-74
2022/06/18 02:27:39;;;;;;;4.80;4.38;;;11.70;99.90;;;;;;4939346;29;20031;-74
2022/06/18 02:30:11;;;;;;;4.95;4.55;;;11.70;99.90;;;;;;4939160;29;20117;-73
2022/06/18 02:32:55;;;;;;;4.88;4.47;;;11.60;99.90;;;;;;4956716;29;20034;-74
2022/06/18 02:35:21;;;;;;;5.50;4.45;;;11.60;99.90;;;;;;4938667;29;20035;-74
2022/06/18 02:37:48;;;;;;;4.93;4.53;;;11.60;99.90;;;;;;4956309;29;20403;-73
2022/06/18 02:40:20;;;;;;;4.90;4.47;;;11.70;99.90;;;;;;4956275;29;20055;-73
2022/06/18 02:42:48;;;;;;;6.28;4.60;;;11.70;99.90;;;;;;4956258;29;20027;-74
2022/06/18 02:45:14;;;;;;;7.05;4.60;;;11.70;99.90;;;;;;4939018;29;20034;-73
2022/06/18 02:47:40;;;;;;;6.38;4.70;;;11.70;99.90;;;;;;4955935;29;20542;-74
2022/06/18 02:50:10;;;;;;;5.45;4.47;;;11.80;99.90;;;;;;4938915;29;20118;-73
2022/06/18 02:52:41;;;;;;;4.57;4.22;;;11.80;99.90;;;;;;4939007;29;20037;-73
2022/06/18 02:55:33;;;;;;;4.88;4.40;;;11.80;99.90;;;;;;4939134;29;20035;-74
2022/06/18 02:58:12;;;;;;;4.65;4.25;;;11.90;99.90;;;;;;4938989;29;20038;-73
2022/06/18 03:00:40;;;;;;;5.35;4.43;;;11.90;99.90;;;;;;4956171;29;20152;-73
2022/06/18 03:03:10;;;;;;;4.93;4.25;;;11.90;99.90;;;;;;4938749;29;20035;-73
2022/06/18 03:05:37;;;;;;;6.43;4.57;;;11.90;99.90;;;;;;4955779;29;20035;-73
2022/06/18 03:08:03;;;;;;;4.78;4.38;;;12.00;99.90;;;;;;4938677;29;20038;-73
2022/06/18 03:13:13;;;;;;;5.25;4.07;;;12.00;99.90;;;;;;4955897;29;20034;-74
2022/06/18 03:15:39;;;;;;;5.65;4.13;;;12.00;99.90;;;;;;4938552;29;20423;-73
2022/06/18 03:18:06;;;;;;;4.65;3.92;;;12.00;99.90;;;;;;4955758;29;20077;-73
2022/06/18 03:20:56;;;;;;;6.97;4.65;;;12.00;99.90;;;;;;4955390;29;20395;-73
2022/06/18 03:23:23;;;;;;;6.53;4.57;;;12.00;99.90;;;;;;4938576;29;20035;-73
2022/06/18 03:25:50;;;;;;;4.35;3.95;;;12.00;99.90;;;;;;4955472;29;20143;-74
2022/06/18 03:28:16;;;;;;;5.25;4.00;;;12.10;99.90;;;;;;4955635;29;20124;-73
2022/06/18 03:30:42;;;;;;;4.65;4.20;;;12.10;99.90;;;;;;4938374;29;20027;-73
2022/06/18 03:33:09;;;;;;;4.95;4.53;;;12.10;99.90;;;;;;4938336;29;20035;-73
2022/06/18 03:35:34;;;;;;;4.57;4.07;;;12.10;99.90;;;;;;4955357;29;20468;-73
2022/06/18 03:38:01;;;;;;;4.93;4.20;;;12.20;99.90;;;;;;4955643;29;20027;-74
2022/06/18 03:40:26;;;;;;;4.43;4.03;;;12.20;99.90;;;;;;4955751;29;20031;-73
2022/06/18 03:42:52;;;;;;;6.57;4.85;;;12.20;99.90;;;;;;4955464;29;20038;-73
2022/06/18 03:45:19;;;;;;;13.77;3.65;;;12.30;99.90;;;;;;4938221;29;20024;-73
2022/06/18 03:47:46;;;;;;;6.07;3.70;;;12.30;99.90;;;;;;4955574;29;20087;-74
2022/06/18 03:50:17;;;;;;;4.25;3.95;;;12.40;99.90;;;;;;4938472;29;20034;-74
2022/06/18 03:52:42;;;;;;;4.47;3.95;;;12.40;99.90;;;;;;4938254;29;20490;-73
2022/06/18 03:55:12;;;;;;;4.03;3.55;;;12.50;99.90;;;;;;4955321;29;20031;-73
2022/06/18 03:57:39;;;;;;;4.38;3.50;;;12.60;99.90;;;;;;4927869;29;20039;-73
2022/06/18 04:00:15;;;;;;;3.90;3.60;;;12.60;99.90;;;;;;4951131;29;20423;-73
2022/06/18 04:02:40;;;;;;;4.13;3.72;;;12.70;99.90;;;;;;4937845;29;20039;-73
2022/06/18 04:05:07;;;;;;;4.00;3.70;;;12.80;99.90;;;;;;4955604;29;20035;-74
2022/06/18 04:07:33;;;;;;;6.75;4.05;;;12.90;99.90;;;;;;4955377;29;20051;-73
2022/06/18 04:10:01;;;;;;;3.90;3.50;;;13.00;99.90;;;;;;4938121;29;20031;-73
2022/06/18 04:12:27;;;;;;;3.95;3.55;;;13.10;99.90;;;;;;4938614;29;20384;-73
2022/06/18 04:14:54;;;;;;;4.75;3.40;;;13.10;99.90;;;;;;4955529;29;20115;-74
2022/06/18 04:17:20;;;;;;;3.38;3.08;;;13.20;99.90;;;;;;4955135;29;20023;-73
2022/06/18 04:19:47;;;;;;;3.58;3.28;;;13.30;99.90;;;;;;4955551;29;20452;-74
2022/06/18 04:22:12;;;;;;;4.72;3.05;;;13.30;99.90;;;;;;4940851;29;20090;-73
2022/06/18 04:24:38;;;;;;;4.13;2.78;;;13.40;99.90;;;;;;4941541;29;20490;-74
2022/06/18 04:27:04;;;;;;;3.83;2.80;;;13.50;99.90;;;;;;4941554;29;20392;-74
2022/06/18 04:29:31;;;;;;;3.92;3.25;;;13.60;99.90;;;;;;4958657;29;20067;-74
2022/06/18 04:31:56;;;;;;;4.20;3.40;;;13.60;99.90;;;;;;4958635;29;20019;-74
2022/06/18 04:34:22;;;;;;;3.35;2.97;;;13.70;99.90;;;;;;4958725;29;20026;-67
2022/06/18 04:36:48;;;;;;;4.13;3.30;;;13.80;99.90;;;;;;4958608;29;20027;-75
2022/06/18 04:39:14;;;;;;;2.65;2.47;;;13.90;99.90;;;;;;4958416;29;20023;-77
2022/06/18 04:41:40;;;;;;;4.00;3.13;;;13.90;99.90;;;;;;4958239;29;20094;-76
2022/06/18 04:44:06;;;;;;;3.65;3.35;;;14.00;99.90;;;;;;4941025;29;20172;-76
2022/06/18 04:46:32;;;;;;;3.22;2.47;;;14.00;99.90;;;;;;4958565;29;20031;-76
2022/06/18 04:48:58;;;;;;;3.20;3.00;;;14.10;99.90;;;;;;4958626;29;20059;-76
2022/06/18 04:51:23;;;;;;;3.30;3.00;;;14.20;99.90;;;;;;4958524;29;20032;-75
2022/06/18 04:53:49;;;;;;;2.90;2.70;;;14.30;99.90;;;;;;4958187;29;20061;-75
2022/06/18 04:56:15;;;;;;;2.95;2.75;;;14.40;99.90;;;;;;4940905;29;20027;-74
2022/06/18 04:58:41;;;;;;;3.25;2.72;;;14.50;99.90;;;;;;4958179;29;20031;-75
2022/06/18 05:01:07;;;;;;;2.80;2.60;;;14.60;99.90;;;;;;4958098;29;20031;-75
2022/06/18 05:03:33;;;;;;;5.53;2.88;;;14.70;99.90;;;;;;4958016;29;20043;-77
2022/06/18 05:05:59;;;;;;;2.90;2.70;;;14.80;99.90;;;;;;4958080;29;20027;-76
2022/06/18 05:08:26;;;;;;;2.38;2.17;;;14.80;99.90;;;;;;4940891;29;20032;-74
2022/06/18 05:10:52;;;;;;;2.83;2.65;;;14.90;99.90;;;;;;4940445;29;20085;-75
2022/06/18 05:13:18;;;;;;;3.67;2.38;;;15.00;99.90;;;;;;4957877;29;20122;-75
2022/06/18 05:15:45;;;;;;;2.78;2.40;;;15.20;99.90;;;;;;4957838;29;20088;-75
2022/06/18 05:18:16;;;;;;;2.33;2.20;;;15.30;99.90;;;;;;4957775;29;20027;-75
2022/06/18 05:20:42;;;;;;;3.10;2.75;;;15.40;99.90;;;;;;4957997;29;20053;-75
2022/06/18 05:23:11;;;;;;;2.65;2.45;;;15.50;99.90;;;;;;4957545;29;20031;-77
2022/06/18 05:25:37;;;;;;;2.47;2.38;;;15.60;99.90;;;;;;4940092;29;20528;-75
2022/06/18 05:28:03;;;;;;;3.75;2.45;;;15.70;99.90;;;;;;4940057;29;20114;-76
2022/06/18 05:30:28;;;;;;;2.38;2.17;;;15.80;99.90;;;;;;4957557;29;20033;-76
2022/06/18 05:32:54;;;;;;;4.57;2.40;;;15.90;99.90;;;;;;4956802;28;20039;-77
2022/06/18 05:35:20;;;;;;;2.28;2.17;;;16.10;99.90;;;;;;4957368;29;20059;-75
2022/06/18 05:37:46;;;;;;;4.32;2.28;;;16.30;99.90;;;;;;4957469;29;20028;-75
2022/06/18 05:40:13;;;;;;;3.63;2.38;;;16.40;99.90;;;;;;4940106;29;20036;-76
2022/06/18 05:42:38;;;;;;;2.30;2.08;;;16.70;99.90;;;;;;4940042;29;20039;-77
2022/06/18 05:45:05;;;;;;;5.63;1.98;;;16.80;99.90;;;;;;4940117;29;20173;-76
2022/06/18 05:47:32;;;;;;;1.90;1.80;;;16.90;99.90;;;;;;4957296;29;20027;-76
2022/06/18 05:49:59;;;;;;;1.85;1.73;;;17.10;99.90;;;;;;4957216;29;20034;-75
2022/06/18 05:52:27;;;;;;;2.17;1.80;;;17.30;99.90;;;;;;4939859;29;20041;-76
2022/06/18 05:54:53;;;;;;;2.30;2.10;;;17.40;99.90;;;;;;4957099;29;20032;-75
2022/06/18 05:57:19;;;;;;;2.55;1.80;;;17.60;99.90;;;;;;4957440;29;20031;-76
2022/06/18 05:59:46;;;;;;;2.13;2.00;;;17.70;99.90;;;;;;4956733;29;20359;-76
2022/06/18 06:02:13;;;;;;;3.03;1.83;;;17.80;99.90;;;;;;4939717;29;20031;-76
2022/06/18 06:04:39;;;;;;;5.70;2.47;;;18.00;99.90;;;;;;4956782;29;20038;-78
2022/06/18 06:07:06;;;;;;;2.53;1.98;;;18.10;99.90;;;;;;4939734;29;20023;-78
2022/06/18 06:12:17;;;;;;;2.60;1.95;;;18.30;99.90;;;;;;4956875;29;20042;-72
2022/06/18 06:14:42;;;;;;;1.63;1.52;;;18.30;99.90;;;;;;4939595;29;20035;-77
2022/06/18 06:17:13;;;;;;;4.10;1.90;;;18.40;99.90;;;;;;4956550;29;20468;-78
2022/06/18 06:19:39;;;;;;;2.60;1.88;;;18.60;99.90;;;;;;4956651;29;20023;-78
2022/06/18 06:22:05;;;;;;;2.67;1.45;;;18.70;99.90;;;;;;4939078;29;20027;-60
2022/06/18 06:24:30;;;;;;;1.80;1.70;;;18.80;99.90;;;;;;4956633;29;20027;-60
2022/06/18 06:26:56;;;;;;;2.25;1.58;;;18.90;99.90;;;;;;4956404;29;20047;-60
2022/06/18 06:29:21;;;;;;;6.00;2.40;;;19.00;99.90;;;;;;4956360;29;20082;-60
2022/06/18 06:31:47;;;;;;;2.65;1.35;;;19.20;99.90;;;;;;4956682;29;20062;-60
2022/06/18 06:34:13;;;;;;;3.13;1.85;;;19.30;99.90;;;;;;4956339;29;20090;-60
2022/06/18 06:36:38;;;;;;;1.38;1.38;;;19.40;99.90;;;;;;4956360;29;20435;-60
2022/06/18 06:39:04;;;;;;;1.95;1.58;;;19.50;99.90;;;;;;4956317;29;20027;-60
2022/06/18 06:41:31;;;;;;;1.85;1.70;;;19.70;99.90;;;;;;4956179;29;20444;-60
2022/06/18 06:43:57;;;;;;;2.13;1.83;;;19.80;99.90;;;;;;4956079;28;20027;-60
2022/06/18 06:46:23;;;;;;;10.93;2.20;;;20.00;99.90;;;;;;4956150;29;20034;-59
2022/06/18 06:48:48;;;;;;;3.10;1.42;;;20.20;99.90;;;;;;4956435;29;20070;-60
2022/06/18 06:51:21;;;;;;;2.15;1.60;;;20.40;99.90;;;;;;4956315;29;20479;-60
2022/06/18 06:53:47;;;;;;;3.95;1.73;;;20.60;99.90;;;;;;4956004;29;20472;-60
2022/06/18 06:58:59;;;;;;;3.42;1.77;;;21.00;99.90;;;;;;4955804;29;20061;-59
2022/06/18 07:01:25;;;;;;;4.07;1.80;;;21.10;99.90;;;;;;4955936;29;20031;-59
2022/06/18 07:03:51;;;;;;;3.40;1.30;;;21.40;99.90;;;;;;4955583;29;20082;-59
2022/06/18 07:06:17;;;;;;;2.00;1.83;;;21.50;99.90;;;;;;4955596;29;20032;-58
2022/06/18 07:08:44;;;;;;;3.17;1.42;;;21.60;99.90;;;;;;4955925;29;20024;-57
2022/06/18 07:11:10;;;;;;;5.45;1.45;;;21.80;99.90;;;;;;4956099;29;20042;-58
2022/06/18 07:13:36;;;;;;;1.35;1.02;;;22.00;99.90;;;;;;4955660;29;20126;-57
2022/06/18 07:16:02;;;;;;;1.20;1.05;;;22.30;99.90;;;;;;4955457;29;20155;-57
2022/06/18 07:18:35;;;;;;;1.88;1.00;;;22.70;99.50;;;;;;4955450;29;20062;-57
2022/06/18 07:21:02;;;;;;;1.02;0.90;;;23.00;98.80;;;;;;4955543;29;20081;-57
2022/06/18 07:23:28;;;;;;;1.88;1.00;;;23.20;99.10;;;;;;4955254;29;20114;-57
2022/06/18 07:25:54;;;;;;;0.95;0.80;;;23.40;98.30;;;;;;4955832;29;20047;-57
2022/06/18 07:28:20;;;;;;;0.75;0.75;;;23.70;97.10;;;;;;4955474;29;20035;-60
2022/06/18 07:30:46;;;;;;;1.70;1.23;;;24.10;95.60;;;;;;4955435;29;20479;-58
2022/06/18 07:33:16;;;;;;;3.90;1.23;;;24.60;95.30;;;;;;4938761;29;20038;-58
2022/06/18 07:35:41;;;;;;;1.45;0.73;;;24.90;93.30;;;;;;4955581;29;20039;-59
2022/06/18 07:38:07;;;;;;;1.95;0.77;;;25.50;91.20;;;;;;4955218;29;20023;-57
2022/06/18 07:40:44;;;;;;;2.47;0.90;;;25.80;88.10;;;;;;4955298;29;20038;-59
2022/06/18 07:43:16;;;;;;;1.50;0.77;;;26.30;82.20;;;;;;4955376;29;20040;-57
2022/06/18 07:45:41;;;;;;;1.38;0.60;;;26.60;78.00;;;;;;4955477;29;20030;-57
2022/06/18 07:48:07;;;;;;;1.42;0.85;;;26.80;73.70;;;;;;4955506;29;20032;-59
2022/06/18 07:50:33;;;;;;;2.90;0.70;;;27.20;72.30;;;;;;4955405;29;20043;-58
2022/06/18 07:52:59;;;;;;;3.80;0.70;;;27.40;70.40;;;;;;4955472;29;20039;-57
2022/06/18 07:55:28;;;;;;;0.85;0.85;;;27.50;69.50;;;;;;4955681;28;20027;-57
2022/06/18 07:57:53;;;;;;;1.35;0.68;;;27.60;68.10;;;;;;4959211;29;20467;-58
2022/06/18 08:00:21;;;;;;;7.35;0.80;;;27.80;64.30;;;;;;4959105;29;20031;-58
2022/06/18 08:02:48;;;;;;;1.20;0.60;;;27.40;62.00;;;;;;4959169;29;20054;-57
2022/06/18 08:05:23;;;;;;;0.50;0.50;;;27.10;60.70;;;;;;4959272;29;20027;-58
2022/06/18 08:07:49;;;;;;;2.15;0.70;;;27.40;61.00;;;;;;4959332;29;20019;-57
2022/06/18 08:10:14;;;;;;;1.67;0.80;;;27.20;60.30;;;;;;4958810;29;20487;-57
2022/06/18 08:12:40;;;;;;;0.52;0.50;;;27.00;59.20;;;;;;4958780;29;20043;-57
2022/06/18 08:15:07;;;;;;;0.73;0.57;;;27.30;59.40;;;;;;4959002;29;20074;-57
2022/06/18 08:17:32;;;;;;;1.77;0.60;;;27.70;53.10;;;;;;4958913;29;20065;-57
2022/06/18 08:19:58;;;;;;;2.67;0.50;;;27.90;55.10;;;;;;4958939;29;20059;-57
2022/06/18 08:22:25;;;;;;;1.05;0.70;;;27.90;54.50;;;;;;4958480;29;20126;-57
2022/06/18 08:24:51;;;;;;;1.95;0.63;;;28.40;53.30;;;;;;4958698;29;20071;-57
2022/06/18 08:27:19;;;;;;;2.47;0.90;;;29.00;52.60;;;;;;4958044;29;20055;-58
2022/06/18 08:29:45;;;;;;;1.58;0.65;;;29.30;50.30;;;;;;4958598;29;20058;-58
2022/06/18 08:32:10;;;;;;;1.48;1.05;;;29.70;48.10;;;;;;4958971;29;20464;-58
2022/06/18 08:34:36;;;;;;;0.75;0.60;;;29.80;48.80;;;;;;4958762;29;20472;-58
2022/06/18 08:37:04;;;;;;;0.55;0.55;;;29.80;48.80;;;;;;4958347;29;20067;-59
2022/06/18 08:39:31;;;;;;;1.00;0.88;;;30.30;48.40;;;;;;4958116;29;20476;-60
2022/06/18 08:42:30;;;;;;;0.82;0.47;;;30.70;47.20;;;;;;4958513;29;20027;-58
2022/06/18 08:45:01;;;;;;;0.60;0.52;;;31.00;43.80;;;;;;4958404;29;20043;-60
2022/06/18 08:47:49;;;;;;;1.02;0.52;;;31.00;43.70;;;;;;4958326;29;20148;-59
2022/06/18 08:50:20;;;;;;;0.85;0.85;;;30.60;45.20;;;;;;4958272;29;20031;-58
2022/06/18 08:53:18;;;;;;;0.77;0.57;;;30.20;43.40;;;;;;4958173;29;20420;-59
2022/06/18 08:56:02;;;;;;;0.93;0.70;;;30.10;44.40;;;;;;4958212;29;20078;-60
2022/06/18 08:58:35;;;;;;;1.85;0.63;;;30.40;45.00;;;;;;4958137;29;20028;-60
2022/06/18 09:01:05;;;;;;;0.70;0.60;;;30.30;45.80;;;;;;4958051;29;20031;-59
2022/06/18 09:04:03;;;;;;;0.95;0.77;;;30.40;44.30;;;;;;4940654;29;20043;-59
2022/06/18 09:07:06;;;;;;;1.40;0.98;;;30.40;45.10;;;;;;4915004;28;20042;-60
2022/06/18 09:09:54;;;;;;;2.78;0.90;;;30.90;44.70;;;;;;4940497;29;20383;-60
2022/06/18 09:12:24;;;;;;;3.33;0.80;;;31.00;44.90;;;;;;4957774;29;20035;-58
2022/06/18 09:14:58;;;;;;;1.63;0.80;;;31.10;43.00;;;;;;4958145;29;20152;-58
2022/06/18 09:17:36;;;;;;;1.75;0.60;;;31.20;43.20;;;;;;4957424;29;20027;-58
2022/06/18 09:20:10;;;;;;;3.00;0.73;;;31.40;43.70;;;;;;4940670;29;20034;-58
2022/06/18 09:22:41;;;;;;;0.82;0.65;;;31.60;42.90;;;;;;4940363;29;20035;-58
2022/06/18 09:25:19;;;;;;;1.70;0.90;;;31.60;43.70;;;;;;4957433;29;20040;-58
2022/06/18 09:28:11;;;;;;;2.50;1.00;;;31.90;42.20;;;;;;4957988;29;20114;-59
2022/06/18 09:30:42;;;;;;;1.08;0.60;;;31.40;42.70;;;;;;4956983;29;20483;-60
2022/06/18 09:33:17;;;;;;;2.38;0.88;;;31.60;43.10;;;;;;4940216;29;20090;-58
2022/06/18 09:35:51;;;;;;;1.38;0.73;;;31.70;43.40;;;;;;4957493;29;20039;-61
2022/06/18 09:38:26;;;;;;;2.03;1.00;;;31.90;43.20;;;;;;4957619;29;20046;-60
2022/06/18 09:40:56;;;;;;;1.60;0.98;;;32.10;42.00;;;;;;4940421;29;20446;-59
2022/06/18 09:43:54;;;;;;;1.13;0.68;;;32.40;41.70;;;;;;4957072;29;20043;-59
2022/06/18 09:46:28;;;;;;;0.95;0.95;;;32.00;41.40;;;;;;4940359;29;20073;-59
2022/06/18 09:48:54;;;;;;;1.73;1.00;;;31.80;41.60;;;;;;4957661;29;20122;-59
2022/06/18 09:51:39;;;;;;;1.05;0.95;;;32.00;42.80;;;;;;4957310;29;20106;-59
2022/06/18 09:54:07;;;;;;;1.08;0.80;;;32.30;41.90;;;;;;4939777;29;20054;-60
2022/06/18 09:56:38;;;;;;;0.75;0.75;;;32.20;41.40;;;;;;4957061;29;20098;-59
2022/06/18 09:59:20;;;;;;;0.93;0.77;;;32.30;42.00;;;;;;4956827;29;20086;-63
2022/06/18 10:01:53;;;;;;;1.23;1.08;;;32.40;41.70;;;;;;4946077;29;20107;-59
2022/06/18 10:07:27;;;;;;;0.95;0.95;;;32.10;43.30;;;;;;4919007;29;20052;-59
2022/06/18 10:10:01;;;;;;;3.85;1.20;;;31.70;42.20;;;;;;4918655;29;20032;-59
2022/06/18 10:12:32;;;;;;;2.22;1.48;;;31.90;45.00;;;;;;4918683;29;20076;-59
2022/06/18 10:15:00;;;;;;;1.80;0.90;;;32.00;42.80;;;;;;4918524;29;20024;-59
2022/06/18 10:17:51;;;;;;;1.20;1.10;;;32.00;41.80;;;;;;4918441;29;20059;-59
2022/06/18 10:20:39;;;;;;;3.90;1.20;;;32.20;42.40;;;;;;4918193;29;20103;-59
2022/06/18 10:23:26;;;;;;;4.20;1.20;;;31.90;44.00;;;;;;4918630;29;20051;-59
2022/06/18 10:26:32;;;;;;;2.13;1.02;;;31.90;42.30;;;;;;4904829;29;20059;-59
2022/06/18 10:29:18;;;;;;;2.70;1.20;;;32.00;42.10;;;;;;4841498;29;20037;-59
2022/06/18 10:31:53;;;;;;;1.50;0.90;;;32.10;41.30;;;;;;4887734;29;20156;-59
2022/06/18 10:34:28;;;;;;;4.28;1.58;;;32.20;41.60;;;;;;4899179;29;20103;-59
2022/06/18 10:37:05;;;;;;;1.38;1.05;;;32.00;43.30;;;;;;4882700;29;20029;-59
2022/06/18 10:39:52;;;;;;;1.25;1.00;;;32.00;41.50;;;;;;4899807;29;20024;-59
2022/06/18 10:42:55;;;;;;;3.72;1.20;;;32.10;41.00;;;;;;4899076;29;20033;-59
2022/06/18 10:45:34;;;;;;;1.33;1.23;;;32.00;43.30;;;;;;4899374;29;20178;-59
2022/06/18 10:47:59;;;;;;;0.98;0.98;;;31.50;41.70;;;;;;4899196;29;20031;-60
2022/06/18 10:50:25;;;;;;;1.80;0.98;;;31.70;41.10;;;;;;4898962;29;20036;-59
2022/06/18 10:53:04;;;;;;;2.13;1.17;;;32.20;40.20;;;;;;4898809;29;20036;-59
2022/06/18 10:55:30;;;;;;;2.13;1.00;;;32.50;41.70;;;;;;4899048;29;20024;-61
2022/06/18 10:58:08;;;;;;;3.05;1.30;;;32.90;40.80;;;;;;4898867;29;20036;-61
2022/06/18 11:00:34;;;;;;;1.15;1.10;;;33.10;42.00;;;;;;4898885;29;20033;-61
2022/06/18 11:03:02;;;;;;;2.10;1.30;;;33.10;41.10;;;;;;4898532;29;20552;-59
2022/06/18 11:05:32;;;;;;;2.95;0.93;;;33.60;40.10;;;;;;4882226;29;20438;-59
2022/06/18 11:08:01;;;;;;;5.32;0.98;;;33.50;38.80;;;;;;4898892;29;20028;-59
2022/06/18 11:10:32;;;;;;;1.17;1.08;;;33.40;39.30;;;;;;4898698;29;20111;-61
2022/06/18 11:13:00;;;;;;;2.83;1.20;;;33.40;39.00;;;;;;4882215;29;20362;-59
2022/06/18 11:15:37;;;;;;;1.42;1.00;;;33.20;37.90;;;;;;4898756;29;20036;-59
2022/06/18 11:18:18;;;;;;;1.75;0.98;;;32.70;40.50;;;;;;4898687;29;20048;-61
2022/06/18 11:21:01;;;;;;;1.08;0.88;;;33.10;38.00;;;;;;4898641;29;20104;-59
2022/06/18 11:23:27;;;;;;;0.88;0.77;;;33.10;37.10;;;;;;4898946;29;20148;-61
2022/06/18 11:25:56;;;;;;;0.70;0.70;;;33.40;36.80;;;;;;4905911;29;20127;-59
2022/06/18 11:28:36;;;;;;;3.45;0.88;;;33.40;37.40;;;;;;4917531;29;20026;-60
2022/06/18 11:31:04;;;;;;;1.10;0.70;;;33.40;37.90;;;;;;4916925;29;20028;-59
2022/06/18 11:33:52;;;;;;;2.05;1.10;;;33.50;37.00;;;;;;4900395;29;20040;-60
2022/06/18 11:36:30;;;;;;;3.80;1.05;;;33.80;38.50;;;;;;4917486;29;20032;-59
2022/06/18 11:38:58;;;;;;;4.10;1.20;;;33.50;37.70;;;;;;4917421;29;20372;-59
2022/06/18 11:41:38;;;;;;;3.20;1.20;;;33.80;39.00;;;;;;4917119;29;20569;-60
2022/06/18 11:44:23;;;;;;;4.38;0.95;;;34.40;36.10;;;;;;4917377;29;20040;-59
2022/06/18 11:46:50;;;;;;;2.00;0.80;;;34.50;34.90;;;;;;4917102;29;20028;-59
2022/06/18 11:49:49;;;;;;;2.80;0.80;;;34.30;35.50;;;;;;4917288;29;20114;-60
2022/06/18 11:52:27;;;;;;;2.15;1.05;;;34.50;36.30;;;;;;4917167;29;20035;-59
2022/06/18 11:54:58;;;;;;;1.80;0.93;;;33.40;36.70;;;;;;4900260;29;20032;-59
2022/06/18 11:57:33;;;;;;;1.25;0.93;;;33.20;37.20;;;;;;4916933;29;20362;-59
2022/06/18 12:00:05;;;;;;;1.40;0.90;;;33.70;37.20;;;;;;4917349;29;20029;-59
2022/06/18 12:02:54;;;;;;;1.40;0.85;;;33.90;37.80;;;;;;4900193;29;20477;-59
2022/06/18 12:05:46;;;;;;;1.10;0.70;;;34.30;36.90;;;;;;4917206;29;20029;-59
2022/06/18 12:08:18;;;;;;;1.05;1.00;;;35.10;36.00;;;;;;4916890;29;20362;-59
2022/06/18 12:11:10;;;;;;;2.67;0.90;;;35.40;35.50;;;;;;4917229;29;20071;-59
2022/06/18 12:13:45;;;;;;;1.23;0.82;;;35.50;35.30;;;;;;4917138;29;20039;-59
2022/06/18 12:16:21;;;;;;;0.90;0.90;;;35.60;35.10;;;;;;4916702;29;20039;-60
2022/06/18 12:19:00;;;;;;;5.68;0.90;;;35.70;36.40;;;;;;4917084;29;20028;-59
2022/06/18 12:21:42;;;;;;;4.40;0.73;;;35.90;33.60;;;;;;4917400;29;20032;-59
2022/06/18 12:24:14;;;;;;;1.08;0.82;;;35.70;33.50;;;;;;4900521;29;20033;-59
2022/06/18 12:26:43;;;;;;;1.52;0.85;;;35.10;34.70;;;;;;4917277;29;20409;-59
2022/06/18 12:29:36;;;;;;;2.33;0.80;;;35.40;35.00;;;;;;4899964;29;20028;-60
2022/06/18 12:32:26;;;;;;;3.45;1.08;;;36.20;33.70;;;;;;4899991;29;20088;-60
2022/06/18 12:35:04;;;;;;;1.25;0.80;;;36.30;33.90;;;;;;4917251;29;20028;-59
2022/06/18 12:37:35;;;;;;;0.77;0.70;;;35.90;33.10;;;;;;4900115;29;20020;-61
2022/06/18 12:40:04;;;;;;;2.58;0.85;;;35.70;33.40;;;;;;4916649;29;20024;-80
2022/06/18 12:42:52;;;;;;;2.60;0.63;;;35.80;33.00;;;;;;4919123;29;20027;-84
2022/06/18 12:45:56;;;;;;;1.10;0.70;;;36.00;31.00;;;;;;4904451;29;20126;-82
2022/06/18 12:48:31;;;;;;;1.48;0.68;;;36.20;31.50;;;;;;4903757;29;20036;-82
2022/06/18 12:51:02;;;;;;;0.85;0.65;;;35.70;31.90;;;;;;4920632;29;20035;-84
2022/06/18 12:53:46;;;;;;;2.35;0.80;;;35.90;31.70;;;;;;4920723;29;20036;-84
2022/06/18 12:56:31;;;;;;;0.95;0.60;;;35.80;32.10;;;;;;4920650;29;20035;-83
2022/06/18 12:59:02;;;;;;;0.80;0.80;;;35.50;34.60;;;;;;4920742;29;20492;-84
2022/06/18 13:01:49;;;;;;;0.80;0.80;;;35.70;32.80;;;;;;4903926;29;20028;-85
2022/06/18 13:04:33;;;;;;;1.08;1.00;;;35.80;32.10;;;;;;4903855;29;20119;-85
2022/06/18 13:07:07;;;;;;;1.30;0.70;;;35.50;33.00;;;;;;4904349;29;20389;-83
2022/06/18 13:09:56;;;;;;;1.75;0.65;;;35.40;31.20;;;;;;4920761;29;20070;-87
2022/06/18 13:12:34;;;;;;;0.60;0.60;;;35.80;33.10;;;;;;4903631;29;20035;-86
2022/06/18 13:15:18;;;;;;;0.98;0.98;;;36.50;30.40;;;;;;4904403;29;20090;-86
2022/06/18 13:17:52;;;;;;;0.80;0.60;;;36.70;30.30;;;;;;4903550;29;20032;-86
2022/06/18 13:20:24;;;;;;;0.88;0.60;;;37.10;30.50;;;;;;4920549;29;20035;-86
2022/06/18 13:22:49;;;;;;;0.70;0.70;;;37.40;31.20;;;;;;4903698;29;20032;-86
2022/06/18 13:28:18;;;;;;;0.70;0.70;;;37.10;29.80;;;;;;4920283;29;20135;-87